Terminal Aerodrome Forecast
Issued by NWS St Louis, MO

Home | Current Version | Previous Version | Text Only | Print | Product List | Glossary On
Versions: 1 2 3 4 5 6 7 8 9 10 11 12 13 14 15 16 17 18 19 20 21 22 23 24 25
000
FTUS43 KLSX 251000 AAB
TAFSTL
TAF AMD
KSTL 251041Z 2511/2612 17011KT P6SM SCT015 BKN030
     FM251500 19010KT P6SM SCT030
     FM252100 17008KT P6SM BKN250
     FM260800 17008KT 6SM -SHRA VCTS SCT020 BKN035CB=

USA.gov is the U.S. government's official web portal to all federal, state and local government web resources and services.